createdAt,value
2023-08-18T00:00:23.713Z,7.3
2023-08-18T00:01:32.274Z,6.9
2023-08-18T00:02:40.693Z,6.9
2023-08-18T00:03:48.852Z,6.9
2023-08-18T00:04:57.374Z,6.9
2023-08-18T00:06:05.709Z,6.9
2023-08-18T00:07:14.029Z,6.9
2023-08-18T00:08:22.563Z,7.1
2023-08-18T00:09:30.901Z,7.1
2023-08-18T00:10:39.207Z,7.1
2023-08-18T00:11:47.737Z,7.5
2023-08-18T00:12:56.054Z,7.5
2023-08-18T00:14:04.387Z,7.5
2023-08-18T00:15:12.907Z,7.1
2023-08-18T00:16:21.296Z,7.1
2023-08-18T00:17:29.729Z,7.1
2023-08-18T00:18:38.092Z,6.4
2023-08-18T00:19:46.420Z,6.4
2023-08-18T00:20:54.753Z,6.4
2023-08-18T00:22:03.275Z,6.6
2023-08-18T00:23:11.597Z,6.6
2023-08-18T00:24:19.906Z,6.6
2023-08-18T00:25:28.446Z,7.3
2023-08-18T00:26:36.779Z,7.3
2023-08-18T00:27:45.087Z,7.3
2023-08-18T00:28:53.613Z,7.9
2023-08-18T00:30:01.940Z,7.9
2023-08-18T00:31:10.295Z,7.9
2023-08-18T00:32:18.826Z,6.5
2023-08-18T00:33:27.111Z,6.5
2023-08-18T00:34:35.425Z,6.5
2023-08-18T00:35:43.961Z,6.8
2023-08-18T00:36:52.279Z,6.8
2023-08-18T00:38:00.605Z,6.8
2023-08-18T00:39:09.123Z,7
2023-08-18T00:40:17.451Z,7
2023-08-18T00:41:25.772Z,7
2023-08-18T00:42:34.306Z,6.8
2023-08-18T00:43:42.631Z,6.8
2023-08-18T00:44:50.965Z,6.8
2023-08-18T00:45:59.485Z,7.4
2023-08-18T00:47:07.813Z,7.4
2023-08-18T00:48:16.222Z,7.4
2023-08-18T00:49:24.677Z,7.9
2023-08-18T00:50:33.002Z,7.9
2023-08-18T00:51:41.311Z,7.9
2023-08-18T00:52:49.859Z,7.7
2023-08-18T00:53:58.178Z,7.7
2023-08-18T00:55:06.507Z,7.7
2023-08-18T00:56:15.006Z,7.7
2023-08-18T00:57:23.340Z,7.7
2023-08-18T00:58:31.667Z,7.7
2023-08-18T00:59:40.200Z,8
2023-08-18T01:00:48.544Z,8
2023-08-18T01:01:56.853Z,8
2023-08-18T01:03:05.430Z,7.4
2023-08-18T01:04:13.748Z,7.4
2023-08-18T01:05:22.041Z,7.4
2023-08-18T01:06:30.576Z,7.6
2023-08-18T01:07:38.927Z,7.6
2023-08-18T01:08:47.236Z,7.6
2023-08-18T01:09:55.779Z,7.2
2023-08-18T01:11:04.089Z,7.2
2023-08-18T01:12:12.412Z,7.2
2023-08-18T01:13:20.940Z,7.3
2023-08-18T01:14:29.266Z,7.3
2023-08-18T01:15:37.574Z,7.3
2023-08-18T01:16:46.126Z,6.9
2023-08-18T01:17:54.467Z,6.9
2023-08-18T01:19:02.743Z,6.9
2023-08-18T01:20:11.298Z,7.8
2023-08-18T01:21:19.599Z,7.8
2023-08-18T01:22:27.909Z,7.8
2023-08-18T01:23:36.439Z,8
2023-08-18T01:24:44.756Z,8
2023-08-18T01:25:53.084Z,8
2023-08-18T01:27:01.621Z,8
2023-08-18T01:28:09.951Z,8
2023-08-18T01:29:18.272Z,8
2023-08-18T01:30:26.817Z,7.9
2023-08-18T01:31:35.139Z,7.9
2023-08-18T01:32:43.461Z,7.9
2023-08-18T01:33:51.982Z,6.9
2023-08-18T01:35:00.317Z,6.9
2023-08-18T01:36:08.656Z,6.9
2023-08-18T01:37:17.138Z,7.8
2023-08-18T01:38:25.474Z,7.8
2023-08-18T01:39:33.795Z,7.8
2023-08-18T01:40:42.321Z,7.7
2023-08-18T01:41:50.632Z,7.7
2023-08-18T01:42:58.952Z,7.7
2023-08-18T01:44:07.487Z,6.9
2023-08-18T01:45:15.807Z,6.9
2023-08-18T01:46:24.158Z,6.9
2023-08-18T01:47:32.678Z,7.5
2023-08-18T01:48:40.974Z,7.5
2023-08-18T01:49:49.295Z,7.5
2023-08-18T01:50:57.820Z,7.6
2023-08-18T01:52:06.182Z,7.6
2023-08-18T01:53:14.474Z,7.6
2023-08-18T01:54:22.997Z,8.1
2023-08-18T01:55:31.328Z,8.1
2023-08-18T01:56:39.676Z,8.1
2023-08-18T01:57:48.222Z,7.3
2023-08-18T01:58:56.517Z,7.3
2023-08-18T02:00:04.870Z,7.3
2023-08-18T02:01:13.398Z,8.3
2023-08-18T02:02:21.742Z,8.3
2023-08-18T02:03:30.192Z,8.3
2023-08-18T02:04:38.583Z,8
2023-08-18T02:05:46.904Z,8
2023-08-18T02:06:55.222Z,8
2023-08-18T02:08:03.769Z,8.2
2023-08-18T02:09:12.065Z,8.2
2023-08-18T02:10:20.390Z,8.2
2023-08-18T02:11:28.921Z,9.1
2023-08-18T02:12:37.252Z,9.1
2023-08-18T02:13:45.561Z,9.1
2023-08-18T02:14:54.109Z,8.3
2023-08-18T02:16:02.440Z,8.3
2023-08-18T02:17:10.742Z,8.3
2023-08-18T02:18:19.274Z,8.3
2023-08-18T02:19:27.585Z,8.3
2023-08-18T02:20:35.905Z,8.3
2023-08-18T02:21:44.528Z,8
2023-08-18T02:22:52.839Z,8
2023-08-18T02:24:01.213Z,8
2023-08-18T02:25:09.670Z,8.1
2023-08-18T02:26:17.993Z,8.1
2023-08-18T02:27:26.409Z,8.1
2023-08-18T02:28:34.919Z,7.9
2023-08-18T02:29:43.176Z,7.9
2023-08-18T02:30:51.508Z,7.9
2023-08-18T02:32:00.075Z,8.4
2023-08-18T02:33:08.403Z,8.4
2023-08-18T02:34:16.671Z,8.4
2023-08-18T02:35:25.222Z,8.1
2023-08-18T02:36:33.530Z,8.1
2023-08-18T02:37:41.847Z,8.1
2023-08-18T02:38:50.375Z,9
2023-08-18T02:39:58.722Z,9
2023-08-18T02:41:07.012Z,9
2023-08-18T02:42:15.543Z,8
2023-08-18T02:43:23.856Z,8
2023-08-18T02:44:32.190Z,8
2023-08-18T02:45:40.785Z,9
2023-08-18T02:46:49.044Z,9
2023-08-18T02:47:57.371Z,9
2023-08-18T02:49:05.899Z,8.6
2023-08-18T02:50:14.224Z,8.6
2023-08-18T02:51:22.548Z,8.6
2023-08-18T02:52:31.114Z,8.8
2023-08-18T02:53:39.422Z,8.8
2023-08-18T02:54:47.746Z,8.8
2023-08-18T02:55:56.297Z,7.9
2023-08-18T02:57:04.610Z,7.9
2023-08-18T02:58:12.940Z,7.9
2023-08-18T02:59:21.463Z,7.9
2023-08-18T03:00:29.790Z,7.9
2023-08-18T03:01:38.134Z,7.9
2023-08-18T03:02:46.657Z,8
2023-08-18T03:03:54.975Z,8
2023-08-18T03:05:03.273Z,8
2023-08-18T03:06:11.824Z,7.4
2023-08-18T03:07:20.152Z,7.4
2023-08-18T03:08:28.466Z,7.4
2023-08-18T03:09:37.002Z,7.7
2023-08-18T03:10:45.309Z,7.7
2023-08-18T03:11:53.672Z,7.7
2023-08-18T03:13:02.207Z,9
2023-08-18T03:14:10.533Z,9
2023-08-18T03:15:18.827Z,9
2023-08-18T03:16:27.372Z,7.9
2023-08-18T03:17:35.707Z,7.9
2023-08-18T03:18:44.006Z,7.9
2023-08-18T03:19:52.526Z,8.5
2023-08-18T03:21:00.892Z,8.5
2023-08-18T03:22:09.190Z,8.5
2023-08-18T03:23:17.731Z,9.2
2023-08-18T03:24:26.053Z,9.2
2023-08-18T03:25:34.361Z,9.2
2023-08-18T03:26:42.906Z,9.6
2023-08-18T03:27:51.257Z,9.6
2023-08-18T03:28:59.554Z,9.6
2023-08-18T03:30:08.071Z,10.2
2023-08-18T03:31:16.402Z,10.2
2023-08-18T03:32:24.740Z,10.2
2023-08-18T03:33:33.291Z,10.8
2023-08-18T03:34:41.578Z,10.8
2023-08-18T03:35:49.929Z,10.8
2023-08-18T03:36:58.430Z,10
2023-08-18T03:38:06.755Z,10
2023-08-18T03:39:15.070Z,10
2023-08-18T03:40:23.616Z,10.2
2023-08-18T03:41:31.921Z,10.2
2023-08-18T03:42:40.246Z,10.2
2023-08-18T03:43:48.791Z,10.4
2023-08-18T03:44:57.100Z,10.4
2023-08-18T03:46:05.437Z,10.4
2023-08-18T03:47:13.952Z,10.5
2023-08-18T03:48:22.266Z,10.5
2023-08-18T03:49:30.596Z,10.5
2023-08-18T03:50:39.118Z,11.4
2023-08-18T03:51:47.440Z,11.4
2023-08-18T03:52:55.765Z,11.4
2023-08-18T03:54:04.298Z,11.3
2023-08-18T03:55:12.618Z,11.3
2023-08-18T03:56:21.081Z,11.3
2023-08-18T03:57:29.800Z,11.6
2023-08-18T03:58:37.934Z,11.6
2023-08-18T03:59:46.279Z,11.6
2023-08-18T04:00:54.801Z,11.6
2023-08-18T04:02:03.111Z,11.6
2023-08-18T04:03:11.583Z,11.6
2023-08-18T04:04:19.959Z,11.6
2023-08-18T04:05:28.282Z,11.6
2023-08-18T04:06:36.608Z,11.6
2023-08-18T04:07:45.153Z,11.9
2023-08-18T04:08:53.480Z,11.9
2023-08-18T04:10:01.801Z,11.9
2023-08-18T04:11:10.326Z,12.2
2023-08-18T04:12:18.694Z,12.2
2023-08-18T04:13:27.032Z,12.2
2023-08-18T04:14:35.567Z,11.5
2023-08-18T04:15:43.929Z,11.5
2023-08-18T04:16:52.220Z,11.5
2023-08-18T04:18:00.786Z,12.3
2023-08-18T04:19:09.217Z,12.3
2023-08-18T04:20:17.532Z,12.3
2023-08-18T04:21:26.083Z,12.3
2023-08-18T04:22:34.445Z,12.3
2023-08-18T04:23:42.769Z,12.3
2023-08-18T04:24:51.310Z,13.4
2023-08-18T04:25:59.630Z,13.4
2023-08-18T04:27:07.970Z,13.4
2023-08-18T04:28:16.559Z,12.1
2023-08-18T04:29:24.844Z,12.1
2023-08-18T04:30:33.175Z,12.1
2023-08-18T04:31:41.723Z,12.5
2023-08-18T04:32:50.053Z,12.5
2023-08-18T04:33:58.347Z,12.5
2023-08-18T04:35:06.872Z,13.4
2023-08-18T04:36:15.194Z,13.4
2023-08-18T04:37:23.517Z,13.4
2023-08-18T04:38:32.036Z,12.4
2023-08-18T04:39:40.377Z,12.4
2023-08-18T04:40:48.685Z,12.4
2023-08-18T04:41:57.231Z,12.9
2023-08-18T04:43:05.538Z,12.9
2023-08-18T04:44:13.869Z,12.9
2023-08-18T04:45:22.430Z,12.4
2023-08-18T04:46:30.760Z,12.4
2023-08-18T04:47:39.093Z,12.4
2023-08-18T04:48:47.583Z,13.3
2023-08-18T04:49:55.918Z,13.3
2023-08-18T04:51:04.255Z,13.3
2023-08-18T04:52:12.760Z,12
2023-08-18T04:53:21.094Z,12
2023-08-18T04:54:29.415Z,12
2023-08-18T04:55:37.959Z,12.5
2023-08-18T04:56:46.292Z,12.5
2023-08-18T04:57:54.608Z,12.5
2023-08-18T04:59:03.157Z,11.7
2023-08-18T05:00:11.477Z,11.7
2023-08-18T05:01:19.888Z,11.7
2023-08-18T05:02:28.512Z,12.1
2023-08-18T05:03:36.838Z,12.1
2023-08-18T05:04:45.060Z,12.1
2023-08-18T05:05:53.591Z,11.6
2023-08-18T05:07:03.965Z,11.6
2023-08-18T05:08:10.244Z,11.6
2023-08-18T05:09:18.768Z,12
2023-08-18T05:10:27.086Z,12
2023-08-18T05:11:35.426Z,12
2023-08-18T05:12:43.943Z,11.6
2023-08-18T05:13:52.268Z,11.6
2023-08-18T05:15:00.614Z,11.6
2023-08-18T05:16:09.151Z,11.9
2023-08-18T05:17:17.504Z,11.9
2023-08-18T05:18:25.828Z,11.9
2023-08-18T05:19:34.385Z,11.8
2023-08-18T05:20:42.671Z,11.8
2023-08-18T05:21:50.991Z,11.8
2023-08-18T05:22:59.546Z,11.4
2023-08-18T05:24:07.868Z,11.4
2023-08-18T05:25:16.204Z,11.4
2023-08-18T05:26:24.705Z,11.7
2023-08-18T05:27:33.050Z,11.7
2023-08-18T05:28:41.366Z,11.7
2023-08-18T05:29:49.896Z,12.4
2023-08-18T05:30:58.281Z,12.4
2023-08-18T05:32:06.544Z,12.4
2023-08-18T05:33:15.074Z,11.6
2023-08-18T05:34:23.398Z,11.6
2023-08-18T05:35:31.748Z,11.6
2023-08-18T05:36:40.261Z,10.3
2023-08-18T05:37:48.592Z,10.3
2023-08-18T05:38:56.909Z,10.3
2023-08-18T05:40:05.458Z,10.6
2023-08-18T05:41:13.876Z,10.6
2023-08-18T05:42:22.168Z,10.6
2023-08-18T05:43:30.713Z,10.8
2023-08-18T05:44:39.024Z,10.8
2023-08-18T05:45:47.427Z,10.8
2023-08-18T05:46:55.869Z,10.4
2023-08-18T05:48:04.197Z,10.4
2023-08-18T05:49:12.520Z,10.4
2023-08-18T05:50:21.073Z,11
2023-08-18T05:51:29.389Z,11
2023-08-18T05:52:37.686Z,11
2023-08-18T05:53:46.221Z,11.1
2023-08-18T05:54:54.538Z,11.1
2023-08-18T05:56:02.869Z,11.1
2023-08-18T05:57:11.381Z,10
2023-08-18T05:58:19.716Z,10
2023-08-18T05:59:28.029Z,10
2023-08-18T06:00:36.561Z,8.7
2023-08-18T06:01:44.873Z,8.7
2023-08-18T06:02:53.217Z,8.7
2023-08-18T06:04:01.772Z,7.8
2023-08-18T06:05:10.047Z,7.8
2023-08-18T06:06:18.360Z,7.8
2023-08-18T06:07:27.016Z,8.1
2023-08-18T06:08:35.254Z,8.1
2023-08-18T06:09:43.547Z,8.1
2023-08-18T06:10:52.063Z,8.6
2023-08-18T06:12:00.392Z,8.6
2023-08-18T06:13:08.754Z,8.6
2023-08-18T06:14:17.270Z,7.6
2023-08-18T06:15:25.589Z,7.6
2023-08-18T06:16:34.017Z,7.6
2023-08-18T06:17:42.509Z,9.5
2023-08-18T06:18:50.793Z,9.5
2023-08-18T06:19:59.131Z,9.5
2023-08-18T06:21:09.335Z,10.7
2023-08-18T06:22:15.976Z,10.7
2023-08-18T06:23:24.335Z,10.7
2023-08-18T06:24:32.832Z,11.2
2023-08-18T06:25:41.139Z,11.2
2023-08-18T06:26:49.471Z,11.2
2023-08-18T06:27:58.002Z,11.7
2023-08-18T06:29:06.325Z,11.7
2023-08-18T06:30:14.685Z,11.7
2023-08-18T06:31:23.200Z,14
2023-08-18T06:32:31.788Z,14
2023-08-18T06:33:39.808Z,14
2023-08-18T06:34:48.353Z,12.9
2023-08-18T06:35:56.691Z,12.9
2023-08-18T06:37:05.020Z,12.9
2023-08-18T06:38:13.541Z,12.1
2023-08-18T06:39:21.908Z,12.1
2023-08-18T06:40:30.196Z,12.1
2023-08-18T06:41:38.754Z,11.7
2023-08-18T06:42:47.057Z,11.7
2023-08-18T06:43:55.384Z,11.7
2023-08-18T06:45:03.923Z,12.4
2023-08-18T06:46:12.311Z,12.4
2023-08-18T06:47:20.571Z,12.4
2023-08-18T06:48:29.128Z,13.7
2023-08-18T06:49:37.489Z,13.7
2023-08-18T06:50:45.756Z,13.7
2023-08-18T06:51:54.288Z,13
2023-08-18T06:53:02.613Z,13
2023-08-18T06:54:10.929Z,13
2023-08-18T06:55:20.978Z,13.9
2023-08-18T06:56:27.765Z,13.9
2023-08-18T06:57:36.118Z,13.9
2023-08-18T06:58:44.672Z,11
2023-08-18T06:59:52.972Z,11
2023-08-18T07:01:01.299Z,11
2023-08-18T07:02:09.840Z,11.2
2023-08-18T07:03:18.226Z,11.2
2023-08-18T07:04:26.476Z,11.2
2023-08-18T07:05:34.999Z,13
2023-08-18T07:06:43.313Z,13
2023-08-18T07:07:51.636Z,13
2023-08-18T07:09:00.172Z,10.4
2023-08-18T07:10:08.489Z,10.4
2023-08-18T07:11:16.837Z,10.4
2023-08-18T07:12:25.392Z,8.7
2023-08-18T07:13:33.691Z,8.7
2023-08-18T07:14:42.010Z,8.7
2023-08-18T07:15:50.559Z,9.7
2023-08-18T07:16:58.867Z,9.7
2023-08-18T07:18:07.235Z,9.7
2023-08-18T07:19:15.718Z,7.9
2023-08-18T07:20:24.043Z,7.9
2023-08-18T07:21:32.373Z,7.9
2023-08-18T07:22:40.938Z,7.4
2023-08-18T07:23:49.271Z,7.4
2023-08-18T07:24:57.572Z,7.4
2023-08-18T07:26:06.116Z,7.7
2023-08-18T07:27:14.469Z,7.7
2023-08-18T07:28:22.797Z,7.7
2023-08-18T07:29:31.367Z,7.5
2023-08-18T07:30:39.945Z,7.5
2023-08-18T07:31:48.287Z,7.5
2023-08-18T07:32:56.823Z,7.3
2023-08-18T07:34:05.122Z,7.3
2023-08-18T07:35:13.437Z,7.3
2023-08-18T07:36:21.969Z,7
2023-08-18T07:38:38.618Z,7
2023-08-18T07:39:47.155Z,6.2
2023-08-18T07:40:55.454Z,6.2
2023-08-18T07:42:03.792Z,6.2
2023-08-18T07:43:12.338Z,4.9
2023-08-18T07:44:20.660Z,4.9
2023-08-18T07:45:29.023Z,4.9
2023-08-18T07:46:37.476Z,5.9
2023-08-18T07:47:45.821Z,5.9
2023-08-18T07:48:54.109Z,5.9
2023-08-18T07:50:02.643Z,5.7
2023-08-18T07:51:10.969Z,5.7
2023-08-18T07:52:19.300Z,5.7
2023-08-18T07:53:27.824Z,6.1
2023-08-18T07:54:36.143Z,6.1
2023-08-18T07:55:44.476Z,6.1
2023-08-18T07:56:53.001Z,6.1
2023-08-18T07:58:01.327Z,6.1
2023-08-18T07:59:09.680Z,6.1
2023-08-18T08:00:18.216Z,6
2023-08-18T08:01:26.595Z,6
2023-08-18T08:02:35.196Z,6
2023-08-18T08:03:43.477Z,6.3
2023-08-18T08:04:51.766Z,6.3
2023-08-18T08:06:00.134Z,6.3
2023-08-18T08:07:08.611Z,6.2
2023-08-18T08:08:16.932Z,6.2
2023-08-18T08:09:25.295Z,6.2
2023-08-18T08:10:33.795Z,7.1
2023-08-18T08:11:42.113Z,7.1
2023-08-18T08:12:50.436Z,7.1
2023-08-18T08:13:58.971Z,7.4
2023-08-18T08:15:07.326Z,7.4
2023-08-18T08:16:15.654Z,7.4
2023-08-18T08:17:24.164Z,8
2023-08-18T08:18:32.502Z,8
2023-08-18T08:19:40.816Z,8
2023-08-18T08:20:49.394Z,7.7
2023-08-18T08:21:57.710Z,7.7
2023-08-18T08:23:06.042Z,7.7
2023-08-18T08:24:14.573Z,8.8
2023-08-18T08:25:22.933Z,8.8
2023-08-18T08:26:31.224Z,8.8
2023-08-18T08:27:39.757Z,10
2023-08-18T08:28:48.097Z,10
2023-08-18T08:29:56.463Z,10
2023-08-18T08:31:06.424Z,6.3
2023-08-18T08:32:13.266Z,6.3
2023-08-18T08:33:21.655Z,6.3
2023-08-18T08:34:30.151Z,7.1
2023-08-18T08:35:38.467Z,7.1
2023-08-18T08:36:46.787Z,7.1
2023-08-18T08:37:55.322Z,7.8
2023-08-18T08:39:03.644Z,7.8
2023-08-18T08:40:11.963Z,7.8
2023-08-18T08:41:20.513Z,7.2
2023-08-18T08:42:29.200Z,7.2
2023-08-18T08:43:37.199Z,7.2
2023-08-18T08:44:45.734Z,8.3
2023-08-18T08:45:54.069Z,8.3
2023-08-18T08:47:02.444Z,8.3
2023-08-18T08:48:10.927Z,9.3
2023-08-18T08:49:19.241Z,9.3
2023-08-18T08:50:31.226Z,9.3
2023-08-18T08:51:36.640Z,8.7
2023-08-18T08:52:46.000Z,8.7
2023-08-18T08:53:52.762Z,8.7
2023-08-18T08:56:09.969Z,7.9
2023-08-18T08:57:17.955Z,7.9
2023-08-18T08:58:26.481Z,6.5
2023-08-18T08:59:34.812Z,6.5
2023-08-18T09:00:43.253Z,6.5
2023-08-18T09:01:51.678Z,8.9
2023-08-18T09:03:00.161Z,8.9
2023-08-18T09:04:09.689Z,8.9
2023-08-18T09:05:16.874Z,7.4
2023-08-18T09:06:25.228Z,7.4
2023-08-18T09:07:33.558Z,7.4
2023-08-18T09:08:42.092Z,7.1
2023-08-18T09:09:50.439Z,7.1
2023-08-18T09:10:58.758Z,7.1
2023-08-18T09:12:07.366Z,6
2023-08-18T09:13:15.665Z,6
2023-08-18T09:14:23.993Z,6
2023-08-18T09:15:32.552Z,6.7
2023-08-18T09:16:41.029Z,6.7
2023-08-18T09:17:49.251Z,6.7
2023-08-18T09:18:57.792Z,4.6
2023-08-18T09:20:06.115Z,4.6
2023-08-18T09:21:14.437Z,4.6
2023-08-18T09:22:22.970Z,4.9
2023-08-18T09:23:31.300Z,4.9
2023-08-18T09:24:39.650Z,4.9
2023-08-18T09:25:48.182Z,5.1
2023-08-18T09:26:56.530Z,5.1
2023-08-18T09:28:07.066Z,5.1
2023-08-18T09:29:13.447Z,5.4
2023-08-18T09:30:21.822Z,5.4
2023-08-18T09:31:30.098Z,5.4
2023-08-18T09:32:38.673Z,5
2023-08-18T09:33:46.970Z,5
2023-08-18T09:34:57.243Z,5
2023-08-18T09:36:03.834Z,5.2
2023-08-18T09:37:12.158Z,5.2
2023-08-18T09:38:20.495Z,5.2
2023-08-18T09:39:29.036Z,5
2023-08-18T09:40:37.394Z,5
2023-08-18T09:41:45.718Z,5
2023-08-18T09:42:54.257Z,4.8
2023-08-18T09:44:02.581Z,4.8
2023-08-18T09:45:13.244Z,4.8
2023-08-18T09:46:19.479Z,4.7
2023-08-18T09:47:27.803Z,4.7
2023-08-18T09:48:36.136Z,4.7
2023-08-18T09:49:44.676Z,4.7
2023-08-18T09:50:53.035Z,4.7
2023-08-18T09:52:01.349Z,4.7
2023-08-18T09:53:09.888Z,5.7
2023-08-18T09:54:18.208Z,5.7
2023-08-18T09:55:26.518Z,5.7
2023-08-18T09:56:36.442Z,4.8
2023-08-18T09:57:43.370Z,4.8
2023-08-18T09:58:51.754Z,4.8
2023-08-18T10:00:00.287Z,5.3
2023-08-18T10:01:08.603Z,5.3
2023-08-18T10:02:16.914Z,5.3
2023-08-18T10:03:25.444Z,4.6
2023-08-18T10:04:33.803Z,4.6
2023-08-18T10:05:42.080Z,4.6
2023-08-18T10:06:50.634Z,4
2023-08-18T10:07:58.940Z,4
2023-08-18T10:09:07.259Z,4
2023-08-18T10:10:15.784Z,3.7
2023-08-18T10:11:25.565Z,3.7
2023-08-18T10:12:32.570Z,3.7
2023-08-18T10:13:40.939Z,4
2023-08-18T10:14:49.296Z,4
2023-08-18T10:15:57.635Z,4
2023-08-18T10:17:06.128Z,3.6
2023-08-18T10:18:14.450Z,3.6
2023-08-18T10:19:22.800Z,3.6
2023-08-18T10:20:31.316Z,4.1
2023-08-18T10:21:39.630Z,4.1
2023-08-18T10:22:47.976Z,4.1
2023-08-18T10:23:56.475Z,4.7
2023-08-18T10:25:04.812Z,4.7
2023-08-18T10:26:13.131Z,4.7
2023-08-18T10:27:21.659Z,3.9
2023-08-18T10:28:29.989Z,3.9
2023-08-18T10:29:38.329Z,3.9
2023-08-18T10:30:46.854Z,4.7
2023-08-18T10:31:55.198Z,4.7
2023-08-18T10:33:03.589Z,4.7
2023-08-18T10:34:12.076Z,4.5
2023-08-18T10:35:20.419Z,4.5
2023-08-18T10:36:29.826Z,4.5
2023-08-18T10:37:37.290Z,4.3
2023-08-18T10:38:45.652Z,4.3
2023-08-18T10:39:53.955Z,4.3
2023-08-18T10:41:02.470Z,5.2
2023-08-18T10:42:10.831Z,5.2
2023-08-18T10:43:19.173Z,5.2
2023-08-18T10:44:27.698Z,4.6
2023-08-18T10:45:36.100Z,4.6
2023-08-18T10:46:44.364Z,4.6
2023-08-18T10:47:52.918Z,4.8
2023-08-18T10:49:01.218Z,4.8
2023-08-18T10:50:09.524Z,4.8
2023-08-18T10:51:18.097Z,4.8
2023-08-18T10:52:26.438Z,4.8
2023-08-18T10:53:34.740Z,4.8
2023-08-18T10:54:43.319Z,4.6
2023-08-18T10:55:51.596Z,4.6
2023-08-18T10:56:59.916Z,4.6
2023-08-18T10:58:08.450Z,5.4
2023-08-18T10:59:16.785Z,5.4
2023-08-18T11:00:25.111Z,5.4
2023-08-18T11:01:33.650Z,4.2
2023-08-18T11:02:41.958Z,4.2
2023-08-18T11:03:50.269Z,4.2
2023-08-18T11:04:58.820Z,4.4
2023-08-18T11:06:07.168Z,4.4
2023-08-18T11:07:15.493Z,4.4
2023-08-18T11:08:24.029Z,4.5
2023-08-18T11:09:32.339Z,4.5
2023-08-18T11:10:40.746Z,4.5
2023-08-18T11:11:49.269Z,4.7
2023-08-18T11:12:57.610Z,4.7
2023-08-18T11:14:05.940Z,4.7
2023-08-18T11:15:14.485Z,4.4
2023-08-18T11:16:22.813Z,4.4
2023-08-18T11:17:31.137Z,4.4
2023-08-18T11:18:39.686Z,4.4
2023-08-18T11:19:48.010Z,4.4
2023-08-18T11:20:56.339Z,4.4
2023-08-18T11:22:04.873Z,4.2
2023-08-18T11:23:13.219Z,4.2
2023-08-18T11:24:21.704Z,4.2
2023-08-18T11:25:30.075Z,4.7
2023-08-18T11:26:38.456Z,4.7
2023-08-18T11:27:46.763Z,4.7
2023-08-18T11:28:55.311Z,4
2023-08-18T11:30:03.661Z,4
2023-08-18T11:31:11.996Z,4
2023-08-18T11:32:20.510Z,4.4
2023-08-18T11:33:28.863Z,4.4
2023-08-18T11:34:37.238Z,4.4
2023-08-18T11:35:45.754Z,4.4
2023-08-18T11:36:54.112Z,4.4
2023-08-18T11:38:02.448Z,4.4
2023-08-18T11:39:11.025Z,4.4
2023-08-18T11:40:19.359Z,4.4
2023-08-18T11:41:27.672Z,4.4
2023-08-18T11:42:36.261Z,4.8
2023-08-18T11:43:44.589Z,4.8
2023-08-18T11:44:52.935Z,4.8
2023-08-18T11:46:01.484Z,3.8
2023-08-18T11:47:09.815Z,3.8
2023-08-18T11:48:18.151Z,3.8
2023-08-18T11:49:26.684Z,4
2023-08-18T11:50:35.032Z,4
2023-08-18T11:51:44.745Z,4
2023-08-18T11:52:51.899Z,4.9
2023-08-18T11:54:00.220Z,4.9
2023-08-18T11:55:08.564Z,4.9
2023-08-18T11:56:17.126Z,4.3
2023-08-18T11:57:25.459Z,4.3
2023-08-18T11:58:33.831Z,4.3
2023-08-18T11:59:42.346Z,3.7
2023-08-18T12:00:50.678Z,3.7
2023-08-18T12:01:59.063Z,3.7
2023-08-18T12:03:07.637Z,3.8
2023-08-18T12:04:15.915Z,3.8
2023-08-18T12:05:24.238Z,3.8
2023-08-18T12:06:32.820Z,3.5
2023-08-18T12:07:41.143Z,3.5
2023-08-18T12:08:49.483Z,3.5
2023-08-18T12:09:58.027Z,4.3
2023-08-18T12:11:06.374Z,4.3
2023-08-18T12:12:14.719Z,4.3
2023-08-18T12:13:23.291Z,4.2
2023-08-18T12:14:31.661Z,4.2
2023-08-18T12:15:40.004Z,4.2
2023-08-18T12:16:48.493Z,3.9
2023-08-18T12:17:56.842Z,3.9
2023-08-18T12:19:05.139Z,3.9
2023-08-18T12:20:13.684Z,3.8
2023-08-18T12:21:22.005Z,3.8
2023-08-18T12:22:30.493Z,3.8
2023-08-18T12:23:38.874Z,4.6
2023-08-18T12:24:47.206Z,4.6
2023-08-18T12:25:55.539Z,4.6
2023-08-18T12:27:04.065Z,4
2023-08-18T12:28:12.392Z,4
2023-08-18T12:29:20.721Z,4
2023-08-18T12:30:29.299Z,3.9
2023-08-18T12:31:37.597Z,3.9
2023-08-18T12:32:45.956Z,3.9
2023-08-18T12:33:54.469Z,4.2
2023-08-18T12:35:02.798Z,4.2
2023-08-18T12:36:11.122Z,4.2
2023-08-18T12:37:19.644Z,4.3
2023-08-18T12:38:27.988Z,4.3
2023-08-18T12:39:36.344Z,4.3
2023-08-18T12:40:44.870Z,3.9
2023-08-18T12:41:53.200Z,3.9
2023-08-18T12:43:01.556Z,3.9
2023-08-18T12:44:10.084Z,4.3
2023-08-18T12:45:18.416Z,4.3
2023-08-18T12:46:26.790Z,4.3
2023-08-18T12:47:35.341Z,4.1
2023-08-18T12:48:43.641Z,4.1
2023-08-18T12:49:51.977Z,4.1
2023-08-18T12:51:00.503Z,4.4
2023-08-18T12:52:08.848Z,4.4
2023-08-18T12:53:17.196Z,4.4
2023-08-18T12:54:25.730Z,4.3
2023-08-18T12:55:35.302Z,4.3
2023-08-18T12:56:42.392Z,4.3
2023-08-18T12:57:50.935Z,4.1
2023-08-18T12:58:59.263Z,4.1
2023-08-18T13:00:07.612Z,4.1
2023-08-18T13:01:16.157Z,4.3
2023-08-18T13:02:24.501Z,4.3
2023-08-18T13:03:32.842Z,4.3
2023-08-18T13:04:41.350Z,4.4
2023-08-18T13:05:49.686Z,4.4
2023-08-18T13:06:58.050Z,4.4
2023-08-18T13:08:06.638Z,4.1
2023-08-18T13:09:14.912Z,4.1
2023-08-18T13:10:23.242Z,4.1
2023-08-18T13:11:31.777Z,4.2
2023-08-18T13:12:40.122Z,4.2
2023-08-18T13:13:48.441Z,4.2
2023-08-18T13:14:56.992Z,4.3
2023-08-18T13:16:05.357Z,4.3
2023-08-18T13:17:13.867Z,4.3
2023-08-18T13:18:22.223Z,4.1
2023-08-18T13:19:30.541Z,4.1
2023-08-18T13:20:38.870Z,4.1
2023-08-18T13:21:47.410Z,4
2023-08-18T13:22:55.742Z,4
2023-08-18T13:24:05.624Z,4
2023-08-18T13:25:12.647Z,4.3
2023-08-18T13:26:20.930Z,4.3
2023-08-18T13:27:29.253Z,4.3
2023-08-18T13:28:38.321Z,4.6
2023-08-18T13:29:48.192Z,4.6
2023-08-18T13:30:54.462Z,4.6
2023-08-18T13:32:03.005Z,3.6
2023-08-18T13:33:11.348Z,3.6
2023-08-18T13:34:19.650Z,3.6
2023-08-18T13:35:28.158Z,4.1
2023-08-18T13:36:36.479Z,4.1
2023-08-18T13:37:44.820Z,4.1
2023-08-18T13:38:53.363Z,3.9
2023-08-18T13:40:01.700Z,3.9
2023-08-18T13:41:10.010Z,3.9
2023-08-18T13:42:18.553Z,3.8
2023-08-18T13:43:26.914Z,3.8
2023-08-18T13:44:35.209Z,3.8
2023-08-18T13:45:43.746Z,4
2023-08-18T13:46:52.074Z,4
2023-08-18T13:48:02.723Z,4
2023-08-18T13:49:08.943Z,3.6
2023-08-18T13:50:17.291Z,3.6
2023-08-18T13:51:25.593Z,3.6
2023-08-18T13:52:34.396Z,3.9
2023-08-18T13:53:42.483Z,3.9
2023-08-18T13:54:50.797Z,3.9
2023-08-18T13:55:59.331Z,3.5
2023-08-18T13:57:07.667Z,3.5
2023-08-18T13:58:16.004Z,3.5
2023-08-18T13:59:24.522Z,3.9
2023-08-18T14:00:32.864Z,3.9
2023-08-18T14:01:41.263Z,3.9
2023-08-18T14:02:49.753Z,4.1
2023-08-18T14:03:58.065Z,4.1
2023-08-18T14:05:06.413Z,4.1
2023-08-18T14:06:14.955Z,3.9
2023-08-18T14:07:23.274Z,3.9
2023-08-18T14:08:31.631Z,3.9
2023-08-18T14:09:40.141Z,3.4
2023-08-18T14:10:48.465Z,3.4
2023-08-18T14:11:56.839Z,3.4
2023-08-18T14:13:05.366Z,3.9
2023-08-18T14:14:13.683Z,3.9
2023-08-18T14:15:22.018Z,3.9
2023-08-18T14:16:30.584Z,4.3
2023-08-18T14:17:38.899Z,4.3
2023-08-18T14:18:47.218Z,4.3
2023-08-18T14:19:55.750Z,3.6
2023-08-18T14:21:04.101Z,3.6
2023-08-18T14:22:12.457Z,3.6
2023-08-18T14:23:20.974Z,3.5
2023-08-18T14:24:29.330Z,3.5
2023-08-18T14:25:37.675Z,3.5
2023-08-18T14:26:46.195Z,4
2023-08-18T14:27:54.526Z,4
2023-08-18T14:29:02.864Z,4
2023-08-18T14:30:11.408Z,3.9
2023-08-18T14:31:19.749Z,3.9
2023-08-18T14:32:28.281Z,3.9
2023-08-18T14:33:45.226Z,3.8
2023-08-18T14:34:44.947Z,3.8
2023-08-18T14:35:53.278Z,3.8
2023-08-18T14:37:01.811Z,3.9
2023-08-18T14:38:10.146Z,3.9
2023-08-18T14:39:18.472Z,3.9
2023-08-18T14:40:27.016Z,3.7
2023-08-18T14:41:35.351Z,3.7
2023-08-18T14:42:43.682Z,3.7
2023-08-18T14:43:52.227Z,3.4
2023-08-18T14:45:00.557Z,3.4
2023-08-18T14:46:09.156Z,3.4
2023-08-18T14:47:17.419Z,3.1
2023-08-18T14:48:27.645Z,3.1
2023-08-18T14:49:34.087Z,3.1
2023-08-18T14:50:42.641Z,2.8
2023-08-18T14:51:50.966Z,2.8
2023-08-18T14:52:59.322Z,2.8
2023-08-18T14:54:07.880Z,3.3
2023-08-18T14:55:16.208Z,3.3
2023-08-18T14:56:24.544Z,3.3
2023-08-18T14:57:33.075Z,2.9
2023-08-18T14:58:41.448Z,2.9
2023-08-18T14:59:49.764Z,2.9
2023-08-18T15:00:58.315Z,2.8
2023-08-18T15:02:06.628Z,2.8
2023-08-18T15:03:15.067Z,2.8
2023-08-18T15:04:23.514Z,2.9
2023-08-18T15:05:31.859Z,2.9
2023-08-18T15:06:40.196Z,2.9
2023-08-18T15:07:48.740Z,2.9
2023-08-18T15:08:57.069Z,2.9
2023-08-18T15:10:05.424Z,2.9
2023-08-18T15:11:13.953Z,2.7
2023-08-18T15:46:53.122Z,0
2023-08-18T15:48:01.447Z,0
2023-08-18T15:49:09.829Z,0
2023-08-18T15:50:18.388Z,3
2023-08-18T15:51:26.726Z,3
2023-08-18T15:52:35.065Z,3
2023-08-18T15:53:43.615Z,3
2023-08-18T15:54:51.994Z,3
2023-08-18T15:56:00.341Z,3
2023-08-18T15:57:08.876Z,2.9
2023-08-18T15:58:17.229Z,2.9
2023-08-18T15:59:25.570Z,2.9
2023-08-18T16:00:34.113Z,2.9
2023-08-18T16:01:42.456Z,2.9
2023-08-18T16:02:50.968Z,2.9
2023-08-18T16:03:59.361Z,2.8
2023-08-18T16:05:07.704Z,2.8
2023-08-18T16:06:16.025Z,2.8
2023-08-18T16:07:24.585Z,3
2023-08-18T16:08:32.934Z,3
2023-08-18T16:09:41.248Z,3
2023-08-18T16:10:49.798Z,2.9
2023-08-18T16:11:58.118Z,2.9
2023-08-18T16:13:06.451Z,2.9
2023-08-18T16:15:28.525Z,3.1
2023-08-18T16:16:31.672Z,3.1
2023-08-18T16:17:40.196Z,3
2023-08-18T16:18:48.536Z,3
2023-08-18T16:19:56.844Z,3
2023-08-18T16:21:05.388Z,3.6
2023-08-18T16:22:13.725Z,3.6